createdAt,value
2017-08-13T00:01:48.070Z,15.50
2017-08-13T00:04:14.409Z,15.60
2017-08-13T00:06:40.842Z,15.60
2017-08-13T00:09:07.222Z,15.50
2017-08-13T00:11:33.595Z,15.60
2017-08-13T00:13:59.971Z,15.60
2017-08-13T00:16:26.728Z,15.50
2017-08-13T00:18:53.104Z,15.50
2017-08-13T00:21:19.450Z,15.50
2017-08-13T00:23:48.075Z,15.50
2017-08-13T00:26:14.524Z,15.50
2017-08-13T00:28:40.894Z,15.50
2017-08-13T00:31:07.986Z,15.50
2017-08-13T00:33:34.367Z,15.50
2017-08-13T00:36:01.509Z,15.50
2017-08-13T00:38:27.882Z,15.50
2017-08-13T00:40:54.291Z,15.50
2017-08-13T00:43:20.663Z,15.50
2017-08-13T00:45:47.064Z,15.40
2017-08-13T00:48:13.506Z,15.40
2017-08-13T00:50:39.914Z,15.40
2017-08-13T00:53:06.271Z,15.40
2017-08-13T00:55:32.662Z,15.40
2017-08-13T00:57:59.151Z,15.40
2017-08-13T01:00:25.566Z,15.50
2017-08-13T01:02:51.957Z,15.40
2017-08-13T01:05:18.606Z,15.40
2017-08-13T01:07:45.000Z,15.40
2017-08-13T01:10:12.109Z,15.40
2017-08-13T01:12:38.456Z,15.40
2017-08-13T01:15:04.821Z,15.40
2017-08-13T01:17:31.241Z,15.40
2017-08-13T01:19:57.592Z,15.40
2017-08-13T01:22:24.734Z,15.40
2017-08-13T01:24:51.854Z,15.40
2017-08-13T01:27:18.607Z,15.40
2017-08-13T01:29:45.078Z,15.40
2017-08-13T01:32:11.448Z,15.40
2017-08-13T01:34:37.829Z,15.40
2017-08-13T01:37:04.171Z,15.40
2017-08-13T01:39:30.556Z,15.40
2017-08-13T01:41:56.944Z,15.40
2017-08-13T01:44:23.367Z,15.40
2017-08-13T01:46:49.706Z,15.30
2017-08-13T01:49:16.119Z,15.30
2017-08-13T01:51:42.453Z,15.30
2017-08-13T01:54:08.821Z,15.40
2017-08-13T01:56:35.200Z,15.30
2017-08-13T01:59:02.314Z,15.30
2017-08-13T02:01:28.670Z,15.30
2017-08-13T02:03:55.058Z,15.30
2017-08-13T02:06:21.418Z,15.30
2017-08-13T02:08:47.769Z,15.30
2017-08-13T02:11:14.179Z,15.30
2017-08-13T02:13:41.302Z,15.30
2017-08-13T02:16:07.673Z,15.30
2017-08-13T02:18:34.036Z,15.30
2017-08-13T02:21:00.461Z,15.30
2017-08-13T02:23:26.959Z,15.30
2017-08-13T02:25:53.352Z,15.30
2017-08-13T02:28:19.805Z,15.30
2017-08-13T02:30:46.914Z,15.30
2017-08-13T02:33:13.310Z,15.30
2017-08-13T02:35:39.670Z,15.30
2017-08-13T02:38:06.070Z,15.30
2017-08-13T02:40:32.398Z,15.30
2017-08-13T02:42:58.789Z,15.30
2017-08-13T02:45:25.188Z,15.30
2017-08-13T02:47:51.554Z,15.30
2017-08-13T02:50:17.981Z,15.30
2017-08-13T02:52:44.345Z,15.30
2017-08-13T02:55:10.755Z,15.30
2017-08-13T02:57:37.866Z,15.20
2017-08-13T03:00:04.273Z,15.20
2017-08-13T03:02:30.644Z,15.10
2017-08-13T03:04:57.032Z,15.10
2017-08-13T03:07:23.439Z,15.10
2017-08-13T03:09:50.505Z,15.10
2017-08-13T03:12:16.858Z,15.10
2017-08-13T03:14:43.193Z,15.10
2017-08-13T03:17:09.564Z,15.10
2017-08-13T03:19:35.998Z,15.10
2017-08-13T03:22:03.561Z,15.10
2017-08-13T03:24:30.703Z,15.10
2017-08-13T03:26:57.793Z,15.10
2017-08-13T03:29:24.215Z,15.10
2017-08-13T03:31:50.643Z,15.10
2017-08-13T03:34:17.011Z,15.10
2017-08-13T03:36:43.342Z,15.10
2017-08-13T03:39:09.718Z,15.10
2017-08-13T03:41:36.081Z,15.00
2017-08-13T03:44:02.782Z,15.00
2017-08-13T03:46:29.162Z,15.00
2017-08-13T03:48:55.529Z,15.00
2017-08-13T03:51:22.656Z,15.00
2017-08-13T03:53:49.059Z,15.00
2017-08-13T03:56:15.423Z,15.00
2017-08-13T03:58:42.526Z,14.90
2017-08-13T04:01:08.908Z,14.90
2017-08-13T04:03:35.277Z,14.90
2017-08-13T04:06:01.560Z,14.90
2017-08-13T04:08:27.942Z,14.90
2017-08-13T04:10:54.699Z,14.90
2017-08-13T04:13:21.038Z,14.80
2017-08-13T04:15:47.371Z,14.80
2017-08-13T04:18:13.716Z,14.80
2017-08-13T04:20:42.694Z,14.80
2017-08-13T04:23:09.233Z,14.70
2017-08-13T04:25:35.606Z,14.80
2017-08-13T04:28:02.010Z,14.80
2017-08-13T04:30:28.402Z,14.80
2017-08-13T04:32:54.782Z,14.80
2017-08-13T04:35:21.872Z,14.80
2017-08-13T04:37:49.000Z,14.80
2017-08-13T04:40:15.383Z,14.80
2017-08-13T04:42:41.840Z,14.90
2017-08-13T04:45:08.227Z,14.90
2017-08-13T04:47:34.567Z,15.00
2017-08-13T04:50:00.955Z,15.00
2017-08-13T04:52:27.320Z,15.10
2017-08-13T04:54:53.968Z,15.10
2017-08-13T04:57:20.360Z,15.10
2017-08-13T04:59:46.739Z,15.20
2017-08-13T05:02:13.835Z,15.30
2017-08-13T05:04:40.203Z,15.30
2017-08-13T05:07:06.587Z,15.40
2017-08-13T05:09:32.921Z,15.40
2017-08-13T05:11:59.285Z,15.40
2017-08-13T05:14:25.653Z,15.50
2017-08-13T05:16:52.038Z,15.60
2017-08-13T05:19:18.419Z,15.60
2017-08-13T05:21:45.149Z,15.70
2017-08-13T05:24:11.508Z,15.80
2017-08-13T05:26:37.893Z,15.80
2017-08-13T05:29:05.108Z,15.90
2017-08-13T05:31:31.531Z,15.90
2017-08-13T05:33:57.898Z,15.90
2017-08-13T05:36:24.984Z,16.00
2017-08-13T05:38:51.352Z,16.00
2017-08-13T05:41:17.721Z,16.10
2017-08-13T05:43:44.402Z,16.20
2017-08-13T05:46:10.783Z,16.30
2017-08-13T05:48:40.824Z,16.30
2017-08-13T05:51:08.143Z,16.30
2017-08-13T05:53:35.561Z,16.30
2017-08-13T05:56:03.177Z,16.30
2017-08-13T05:58:29.676Z,16.30
2017-08-13T06:00:56.064Z,16.30
2017-08-13T06:03:23.692Z,16.40
2017-08-13T06:05:50.502Z,16.30
2017-08-13T06:08:16.851Z,16.30
2017-08-13T06:10:43.260Z,16.20
2017-08-13T06:13:09.613Z,16.20
2017-08-13T06:15:36.731Z,16.30
2017-08-13T06:18:03.092Z,16.20
2017-08-13T06:20:30.190Z,16.50
2017-08-13T06:22:56.606Z,16.50
2017-08-13T06:25:23.036Z,16.50
2017-08-13T06:27:49.439Z,16.60
2017-08-13T06:30:15.883Z,16.60
2017-08-13T06:32:42.624Z,16.60
2017-08-13T06:35:08.976Z,16.50
2017-08-13T06:37:35.379Z,16.50
2017-08-13T06:40:01.748Z,16.50
2017-08-13T06:42:28.133Z,16.50
2017-08-13T06:44:54.489Z,16.50
2017-08-13T06:47:20.868Z,16.50
2017-08-13T06:49:47.295Z,16.60
2017-08-13T06:52:13.649Z,16.50
2017-08-13T06:54:40.076Z,16.50
2017-08-13T06:57:07.194Z,16.50
2017-08-13T06:59:34.632Z,16.50
2017-08-13T07:02:01.018Z,16.50
2017-08-13T07:04:27.436Z,16.50
2017-08-13T07:06:54.584Z,16.60
2017-08-13T07:09:21.662Z,16.70
2017-08-13T07:11:48.054Z,16.70
2017-08-13T07:14:14.430Z,16.90
2017-08-13T07:16:41.591Z,17.20
2017-08-13T07:19:08.544Z,17.20
2017-08-13T07:21:34.971Z,17.30
2017-08-13T07:24:01.375Z,17.40
2017-08-13T07:26:27.733Z,17.40
2017-08-13T07:28:54.171Z,17.40
2017-08-13T07:31:20.856Z,17.40
2017-08-13T07:33:47.229Z,17.50
2017-08-13T07:36:14.451Z,17.90
2017-08-13T07:38:40.843Z,17.80
2017-08-13T07:41:07.194Z,18.10
2017-08-13T07:43:33.633Z,18.30
2017-08-13T07:46:00.047Z,18.40
2017-08-13T07:48:27.154Z,18.50
2017-08-13T07:50:53.557Z,18.50
2017-08-13T07:53:20.274Z,18.50
2017-08-13T07:55:46.641Z,18.40
2017-08-13T07:58:13.036Z,18.40
2017-08-13T08:00:39.361Z,18.40
2017-08-13T08:03:05.763Z,18.30
2017-08-13T08:05:32.140Z,18.30
2017-08-13T08:07:58.502Z,18.30
2017-08-13T08:10:24.879Z,18.30
2017-08-13T08:12:51.270Z,18.40
2017-08-13T08:15:17.905Z,18.40
2017-08-13T08:17:44.259Z,18.30
2017-08-13T08:20:11.334Z,18.30
2017-08-13T08:22:37.776Z,18.20
2017-08-13T08:25:04.190Z,18.20
2017-08-13T08:27:30.611Z,18.30
2017-08-13T08:29:57.047Z,18.50
2017-08-13T08:32:23.435Z,18.90
2017-08-13T08:34:49.797Z,19.20
2017-08-13T08:37:16.936Z,19.60
2017-08-13T08:39:43.297Z,19.60
2017-08-13T08:42:10.092Z,19.60
2017-08-13T08:44:36.469Z,19.60
2017-08-13T08:47:02.839Z,19.70
2017-08-13T08:49:29.280Z,19.70
2017-08-13T08:51:55.651Z,19.70
2017-08-13T08:54:22.059Z,19.70
2017-08-13T08:56:49.206Z,19.90
2017-08-13T08:59:16.359Z,20.10
2017-08-13T09:01:42.706Z,20.10
2017-08-13T09:04:09.091Z,20.20
2017-08-13T09:06:35.459Z,20.20
2017-08-13T09:09:02.131Z,20.30
2017-08-13T09:11:28.555Z,20.30
2017-08-13T09:13:54.950Z,20.30
2017-08-13T09:16:21.311Z,20.20
2017-08-13T09:18:47.732Z,20.20
2017-08-13T09:21:14.158Z,20.20
2017-08-13T09:23:40.519Z,20.20
2017-08-13T09:26:06.905Z,20.30
2017-08-13T09:28:33.355Z,20.50
2017-08-13T09:31:00.036Z,20.60
2017-08-13T09:33:26.432Z,20.70
2017-08-13T09:38:53.355Z,20.90
2017-08-13T09:41:20.466Z,20.90
2017-08-13T09:43:47.638Z,20.90
2017-08-13T09:46:14.738Z,20.90
2017-08-13T09:48:41.175Z,20.90
2017-08-13T09:51:07.601Z,21.10
2017-08-13T09:53:33.965Z,21.40
2017-08-13T09:56:00.341Z,21.60
2017-08-13T09:58:27.081Z,21.60
2017-08-13T10:00:53.443Z,21.60
2017-08-13T10:03:19.966Z,21.80
2017-08-13T10:05:46.433Z,22.20
2017-08-13T10:08:13.558Z,22.60
2017-08-13T10:10:40.282Z,22.80
2017-08-13T10:13:06.968Z,22.80
2017-08-13T10:15:34.187Z,22.70
2017-08-13T10:18:00.563Z,22.70
2017-08-13T10:20:26.966Z,22.40
2017-08-13T10:22:53.407Z,22.50
2017-08-13T10:25:20.089Z,22.70
2017-08-13T10:27:46.465Z,23.00
2017-08-13T10:30:12.836Z,23.40
2017-08-13T10:32:39.217Z,23.50
2017-08-13T10:35:05.741Z,23.50
2017-08-13T10:37:32.130Z,23.50
2017-08-13T10:39:58.542Z,23.40
2017-08-13T10:42:26.120Z,23.70
2017-08-13T10:44:52.625Z,23.90
2017-08-13T10:47:19.361Z,24.20
2017-08-13T10:49:46.502Z,24.50
2017-08-13T10:52:13.609Z,24.50
2017-08-13T10:54:40.040Z,24.40
2017-08-13T10:57:06.440Z,24.50
2017-08-13T10:59:32.859Z,24.60
2017-08-13T11:01:59.283Z,24.70
2017-08-13T11:04:25.987Z,25.00
2017-08-13T11:06:52.408Z,25.20
2017-08-13T11:09:18.891Z,25.50
2017-08-13T11:11:45.295Z,25.70
2017-08-13T11:14:11.624Z,25.60
2017-08-13T11:16:37.994Z,25.40
2017-08-13T11:19:04.402Z,25.20
2017-08-13T11:21:31.537Z,25.20
2017-08-13T11:23:58.716Z,25.00
2017-08-13T11:26:25.525Z,24.90
2017-08-13T11:28:51.923Z,24.70
2017-08-13T11:31:18.352Z,24.60
2017-08-13T11:33:44.788Z,24.50
2017-08-13T11:36:11.172Z,24.50
2017-08-13T11:38:37.610Z,24.50
2017-08-13T11:41:03.962Z,24.50
2017-08-13T11:43:30.364Z,24.80
2017-08-13T11:45:57.478Z,25.50
2017-08-13T11:48:24.278Z,25.50
2017-08-13T11:50:50.670Z,25.70
2017-08-13T11:53:17.804Z,26.50
2017-08-13T11:55:44.207Z,26.40
2017-08-13T11:58:10.581Z,26.50
2017-08-13T12:00:37.030Z,26.40
2017-08-13T12:03:03.439Z,26.10
2017-08-13T12:05:29.934Z,25.90
2017-08-13T12:07:56.332Z,25.70
2017-08-13T12:10:22.728Z,25.70
2017-08-13T12:12:49.894Z,26.20
2017-08-13T12:15:16.665Z,26.10
2017-08-13T12:17:43.438Z,26.70
2017-08-13T12:20:09.853Z,27.50
2017-08-13T12:22:36.346Z,28.00
2017-08-13T12:25:02.743Z,28.50
2017-08-13T12:27:31.546Z,28.90
2017-08-13T12:29:58.675Z,29.70
2017-08-13T12:32:26.157Z,30.10
2017-08-13T12:34:52.532Z,30.10
2017-08-13T12:37:18.879Z,30.10
2017-08-13T12:39:45.292Z,30.10
2017-08-13T12:42:11.677Z,29.90
2017-08-13T12:44:38.051Z,29.50
2017-08-13T12:47:04.409Z,29.10
2017-08-13T12:49:30.889Z,29.10
2017-08-13T12:51:57.239Z,29.40
2017-08-13T12:54:24.053Z,29.70
2017-08-13T12:56:50.454Z,30.20
2017-08-13T12:59:16.808Z,30.40
2017-08-13T13:01:43.236Z,30.60
2017-08-13T13:04:09.637Z,30.80
2017-08-13T13:06:36.901Z,30.40
2017-08-13T13:09:03.288Z,30.40
2017-08-13T13:11:36.628Z,29.60
2017-08-13T13:14:03.087Z,28.60
2017-08-13T13:16:29.864Z,27.80
2017-08-13T13:18:56.242Z,27.30
2017-08-13T13:21:22.654Z,26.70
2017-08-13T13:23:49.046Z,26.20
2017-08-13T13:26:15.531Z,25.80
2017-08-13T13:28:41.926Z,25.60
2017-08-13T13:31:09.046Z,26.30
2017-08-13T13:33:35.712Z,26.30
2017-08-13T13:36:02.107Z,27.40
2017-08-13T13:38:28.467Z,28.30
2017-08-13T13:40:54.878Z,28.50
2017-08-13T13:43:21.271Z,28.20
2017-08-13T13:45:47.608Z,27.90
2017-08-13T13:48:13.963Z,27.40
2017-08-13T13:50:40.348Z,26.90
2017-08-13T13:53:06.703Z,26.40
2017-08-13T13:55:33.403Z,26.20
2017-08-13T13:58:00.502Z,26.40
2017-08-13T14:00:26.913Z,26.40
2017-08-13T14:02:53.268Z,27.30
2017-08-13T14:05:19.611Z,28.20
2017-08-13T14:07:45.974Z,28.80
2017-08-13T14:10:12.318Z,29.10
2017-08-13T14:12:38.668Z,29.30
2017-08-13T14:15:05.029Z,29.50
2017-08-13T14:17:31.408Z,29.70
2017-08-13T14:19:57.785Z,30.20
2017-08-13T14:22:24.548Z,30.50
2017-08-13T14:24:50.877Z,30.40
2017-08-13T14:27:17.281Z,30.50
2017-08-13T14:29:43.659Z,30.60
2017-08-13T14:32:10.003Z,30.60
2017-08-13T14:34:36.461Z,30.00
2017-08-13T14:37:02.839Z,29.40
2017-08-13T14:39:29.242Z,29.00
2017-08-13T14:41:55.619Z,28.70
2017-08-13T14:44:22.319Z,28.90
2017-08-13T14:46:48.713Z,29.00
2017-08-13T14:49:15.083Z,28.90
2017-08-13T14:51:42.231Z,28.10
2017-08-13T14:54:09.328Z,27.50
2017-08-13T14:56:35.730Z,27.50
2017-08-13T14:59:02.124Z,27.40
2017-08-13T15:01:28.547Z,27.80
2017-08-13T15:03:54.952Z,28.40
2017-08-13T15:06:21.351Z,29.20
2017-08-13T15:08:47.725Z,30.00
2017-08-13T15:11:14.406Z,30.50
2017-08-13T15:13:41.529Z,29.60
2017-08-13T15:16:07.893Z,29.60
2017-08-13T15:18:35.034Z,28.00
2017-08-13T15:21:01.415Z,27.90
2017-08-13T15:23:27.786Z,27.40
2017-08-13T15:25:54.905Z,26.80
2017-08-13T15:28:21.306Z,26.70
2017-08-13T15:30:47.672Z,26.60
2017-08-13T15:33:14.124Z,26.40
2017-08-13T15:35:40.478Z,26.10
2017-08-13T15:38:07.303Z,25.90
2017-08-13T15:40:33.683Z,25.90
2017-08-13T15:43:00.065Z,25.70
2017-08-13T15:45:27.188Z,25.30
2017-08-13T15:47:53.805Z,25.30
2017-08-13T15:50:20.187Z,25.20
2017-08-13T15:52:47.289Z,24.90
2017-08-13T15:55:13.682Z,24.90
2017-08-13T15:57:40.047Z,25.00
2017-08-13T16:00:06.523Z,25.10
2017-08-13T16:02:32.899Z,25.40
2017-08-13T16:04:59.588Z,26.00
2017-08-13T16:07:26.057Z,26.80
2017-08-13T16:09:52.438Z,27.50
2017-08-13T16:12:18.846Z,27.60
2017-08-13T16:14:45.215Z,27.40
2017-08-13T16:17:12.343Z,27.70
2017-08-13T16:19:38.708Z,27.70
2017-08-13T16:22:05.128Z,28.10
2017-08-13T16:24:31.533Z,28.40
2017-08-13T16:26:57.886Z,28.50
2017-08-13T16:29:24.279Z,28.60
2017-08-13T16:31:50.895Z,28.30
2017-08-13T16:34:17.284Z,27.90
2017-08-13T16:36:43.693Z,27.90
2017-08-13T16:39:10.781Z,28.00
2017-08-13T16:41:37.181Z,28.00
2017-08-13T16:44:04.292Z,28.40
2017-08-13T16:46:30.678Z,28.30
2017-08-13T16:48:57.076Z,28.40
2017-08-13T16:51:23.426Z,28.30
2017-08-13T16:53:50.112Z,28.30
2017-08-13T16:56:16.521Z,28.20
2017-08-13T16:58:42.982Z,28.10
2017-08-13T17:01:10.140Z,28.20
2017-08-13T17:03:36.506Z,28.20
2017-08-13T17:06:02.917Z,28.00
2017-08-13T17:08:29.257Z,27.90
2017-08-13T17:11:03.256Z,27.60
2017-08-13T17:13:30.344Z,27.40
2017-08-13T17:15:56.704Z,27.40
2017-08-13T17:18:23.074Z,27.20
2017-08-13T17:20:49.448Z,27.00
2017-08-13T17:23:15.968Z,26.70
2017-08-13T17:25:43.708Z,26.40
2017-08-13T17:28:10.104Z,26.10
2017-08-13T17:30:36.441Z,25.80
2017-08-13T17:33:02.864Z,25.60
2017-08-13T17:35:29.211Z,25.40
2017-08-13T17:37:56.528Z,25.00
2017-08-13T17:40:22.902Z,24.70
2017-08-13T17:42:49.286Z,24.40
2017-08-13T17:45:15.650Z,24.10
2017-08-13T17:47:42.805Z,23.60
2017-08-13T17:50:09.858Z,23.50
2017-08-13T17:52:36.986Z,23.30
2017-08-13T17:55:04.125Z,23.10
2017-08-13T17:57:30.511Z,23.00
2017-08-13T17:59:56.927Z,22.80
2017-08-13T18:02:23.332Z,22.60
2017-08-13T18:04:50.480Z,22.40
2017-08-13T18:07:16.864Z,22.30
2017-08-13T18:09:43.544Z,22.20
2017-08-13T18:12:10.717Z,22.00
2017-08-13T18:14:37.135Z,21.90
2017-08-13T18:17:04.267Z,21.70
2017-08-13T18:19:30.671Z,21.60
2017-08-13T18:21:57.109Z,21.50
2017-08-13T18:24:23.507Z,21.30
2017-08-13T18:26:49.926Z,21.20
2017-08-13T18:29:16.326Z,21.10
2017-08-13T18:31:43.463Z,21.00
2017-08-13T18:34:09.864Z,20.90
2017-08-13T18:36:36.655Z,20.90
2017-08-13T18:39:03.110Z,20.80
2017-08-13T18:41:29.464Z,20.60
2017-08-13T18:43:55.904Z,20.60
2017-08-13T18:46:22.279Z,20.40
2017-08-13T18:48:48.701Z,20.40
2017-08-13T18:51:15.850Z,20.30
2017-08-13T18:53:43.053Z,20.00
2017-08-13T18:56:09.437Z,20.00
2017-08-13T18:58:35.866Z,19.90
2017-08-13T19:01:03.050Z,19.60
2017-08-13T19:03:29.807Z,19.60
2017-08-13T19:05:56.246Z,19.50
2017-08-13T19:08:22.670Z,19.40
2017-08-13T19:10:49.100Z,19.30
2017-08-13T19:13:15.534Z,19.20
2017-08-13T19:15:41.963Z,19.10
2017-08-13T19:18:08.385Z,19.00
2017-08-13T19:20:34.790Z,18.90
2017-08-13T19:23:01.170Z,18.90
2017-08-13T19:25:27.672Z,18.90
2017-08-13T19:27:54.041Z,18.80
2017-08-13T19:30:20.778Z,18.70
2017-08-13T19:32:47.235Z,18.70
2017-08-13T19:35:13.742Z,18.60
2017-08-13T19:37:41.030Z,18.50
2017-08-13T19:40:07.526Z,18.40
2017-08-13T19:42:33.994Z,18.40
2017-08-13T19:45:00.370Z,18.30
2017-08-13T19:47:26.813Z,18.30
2017-08-13T19:49:53.204Z,18.30
2017-08-13T19:52:20.045Z,18.20
2017-08-13T19:54:46.523Z,18.20
2017-08-13T19:57:13.711Z,18.10
2017-08-13T19:59:40.185Z,18.10
2017-08-13T20:02:06.592Z,18.10
2017-08-13T20:04:33.013Z,18.00
2017-08-13T20:06:59.511Z,18.00
2017-08-13T20:09:26.689Z,17.90
2017-08-13T20:11:53.214Z,17.90
2017-08-13T20:14:19.644Z,17.80
2017-08-13T20:16:46.110Z,17.70
2017-08-13T20:19:12.924Z,17.70
2017-08-13T20:21:39.347Z,17.60
2017-08-13T20:24:05.788Z,17.60
2017-08-13T20:26:32.187Z,17.50
2017-08-13T20:28:59.313Z,17.40
2017-08-13T20:31:25.718Z,17.40
2017-08-13T20:33:52.215Z,17.30
2017-08-13T20:36:18.611Z,17.20
2017-08-13T20:38:44.996Z,17.20
2017-08-13T20:41:11.794Z,17.10
2017-08-13T20:43:38.184Z,17.10
2017-08-13T20:46:04.582Z,17.10
2017-08-13T20:48:31.005Z,17.00
2017-08-13T20:50:58.141Z,16.90
2017-08-13T20:53:24.546Z,16.90
2017-08-13T20:55:50.930Z,16.90
2017-08-13T20:58:17.305Z,16.80
2017-08-13T21:00:43.669Z,16.80
2017-08-13T21:03:11.119Z,16.70
2017-08-13T21:05:38.253Z,16.70
2017-08-13T21:08:04.603Z,16.70
2017-08-13T21:10:31.028Z,16.60
2017-08-13T21:12:58.174Z,16.50
2017-08-13T21:15:24.571Z,16.50
2017-08-13T21:17:50.930Z,16.50
2017-08-13T21:20:17.289Z,16.50
2017-08-13T21:22:43.650Z,16.40
2017-08-13T21:25:10.323Z,16.40
2017-08-13T21:27:36.674Z,16.40
2017-08-13T21:30:03.763Z,16.30
2017-08-13T21:32:30.137Z,16.20
2017-08-13T21:34:56.511Z,16.20
2017-08-13T21:37:23.063Z,16.10
2017-08-13T21:39:49.437Z,16.10
2017-08-13T21:42:15.822Z,16.10
2017-08-13T21:44:42.171Z,16.10
2017-08-13T21:47:08.498Z,16.00
2017-08-13T21:49:34.905Z,16.00
2017-08-13T21:52:01.270Z,16.00
2017-08-13T21:54:27.634Z,16.00
2017-08-13T21:56:54.000Z,15.90
2017-08-13T21:59:20.670Z,15.90
2017-08-13T22:01:47.774Z,15.80
2017-08-13T22:04:14.067Z,15.80
2017-08-13T22:06:40.446Z,15.80
2017-08-13T22:09:06.856Z,15.80
2017-08-13T22:11:33.244Z,15.70
2017-08-13T22:13:59.628Z,15.70
2017-08-13T22:16:25.990Z,15.70
2017-08-13T22:18:52.355Z,15.60
2017-08-13T22:21:19.030Z,15.60
2017-08-13T22:23:45.444Z,15.50
2017-08-13T22:26:11.825Z,15.50
2017-08-13T22:28:38.962Z,15.50
2017-08-13T22:31:05.322Z,15.50
2017-08-13T22:33:32.417Z,15.50
2017-08-13T22:35:58.775Z,15.50
2017-08-13T22:38:26.009Z,15.40
2017-08-13T22:40:52.382Z,15.40
2017-08-13T22:43:18.754Z,15.40
2017-08-13T22:45:45.125Z,15.40
2017-08-13T22:48:11.444Z,15.30
2017-08-13T22:50:37.820Z,15.30
2017-08-13T22:53:04.180Z,15.30
2017-08-13T22:55:30.587Z,15.20
2017-08-13T22:57:57.000Z,15.20
2017-08-13T23:00:23.689Z,15.10
2017-08-13T23:02:50.088Z,15.10
2017-08-13T23:05:16.500Z,15.00
2017-08-13T23:07:42.851Z,15.00
2017-08-13T23:10:10.471Z,15.00
2017-08-13T23:12:36.943Z,15.00
2017-08-13T23:15:03.345Z,15.00
2017-08-13T23:17:30.058Z,15.00
2017-08-13T23:19:57.231Z,15.00
2017-08-13T23:22:23.634Z,14.90
2017-08-13T23:24:50.731Z,14.90
2017-08-13T23:27:17.096Z,14.90
2017-08-13T23:29:43.530Z,14.90
2017-08-13T23:32:10.641Z,14.80
2017-08-13T23:34:37.356Z,14.80
2017-08-13T23:37:03.762Z,14.80
2017-08-13T23:39:30.171Z,14.80
2017-08-13T23:41:56.561Z,14.70
2017-08-13T23:44:22.934Z,14.70
2017-08-13T23:46:49.299Z,14.70
2017-08-13T23:49:15.654Z,14.60
2017-08-13T23:51:42.046Z,14.60
2017-08-13T23:54:09.226Z,14.50
2017-08-13T23:56:35.895Z,14.50
2017-08-13T23:59:02.225Z,14.50
